Time;durP1;ratioP1;P1;durP2;ratioP2;P2;SDS_P1;SDS_P2;PMS_P1;PMS_P2;Temp;Humidity;BMP_temperature;BMP_pressure;BME280_temperature;BME280_humidity;BME280_pressure;Samples;Min_cycle;Max_cycle;Signal;HPM_P1;HPM_P2
2022/03/30 00:00:27;;;;;;;;;;;;;;;19.25;55.51;98089.72;2039025;28;20084;-50
2022/03/30 00:01:27;;;;;;;;;;;;;;;19.25;55.33;98095.09;2040922;28;19937;-51
2022/03/30 00:02:31;;;;;;;;;;;;;;;19.25;55.81;98089.72;2041985;28;19940;-51
2022/03/30 00:03:31;;;;;;;;;;;;;;;19.23;55.63;98086.41;2042076;28;20501;-48
2022/03/30 00:04:34;;;;;;;;;;;;;;;19.24;55.60;98082.66;2043021;28;19925;-51
2022/03/30 00:05:35;;;;;;;;;;;;;;;19.24;55.79;98079.16;2040344;28;22092;-49
2022/03/30 00:06:36;;;;;;;;;;;;;;;19.25;55.51;98080.78;2041271;28;19936;-48
2022/03/30 00:07:37;;;;;;;;;;;;;;;19.23;55.66;98082.91;2046286;28;20052;-48
2022/03/30 00:08:38;;;;;;;;;;;;;;;19.23;55.40;98080.22;2044737;28;19926;-51
2022/03/30 00:09:39;;;;;;;;;;;;;;;19.23;55.43;98086.41;2048322;28;19929;-50
2022/03/30 00:10:40;;;;;;;;;;;;;;;19.23;55.43;98083.72;2045770;28;20609;-51
2022/03/30 00:11:41;;;;;;;;;;;;;;;19.23;55.58;98091.78;2040718;28;19925;-51
2022/03/30 00:12:42;;;;;;;;;;;;;;;19.23;55.58;98081.03;2044870;28;20613;-51
2022/03/30 00:13:43;;;;;;;;;;;;;;;19.22;55.52;98073.16;2043063;28;21125;-50
2022/03/30 00:14:45;;;;;;;;;;;;;;;19.22;55.49;98070.47;2042440;28;19929;-52
2022/03/30 00:15:45;;;;;;;;;;;;;;;19.22;55.58;98074.00;2040066;28;19961;-50
2022/03/30 00:16:48;;;;;;;;;;;;;;;19.20;55.52;98062.66;2040824;28;21035;-49
2022/03/30 00:17:50;;;;;;;;;;;;;;;19.18;55.44;98065.56;2041974;28;19975;-51
2022/03/30 00:18:51;;;;;;;;;;;;;;;19.20;55.66;98062.66;2046210;28;20316;-49
2022/03/30 00:19:52;;;;;;;;;;;;;;;19.19;55.47;98061.00;2041034;28;19932;-48
2022/03/30 00:20:54;;;;;;;;;;;;;;;19.19;55.52;98047.56;2053648;28;19938;-51
2022/03/30 00:21:54;;;;;;;;;;;;;;;19.18;55.68;98060.19;2039551;28;19926;-51
2022/03/30 00:22:56;;;;;;;;;;;;;;;19.16;55.66;98045.31;2039094;28;19983;-52
2022/03/30 00:23:56;;;;;;;;;;;;;;;19.17;55.44;98050.47;2042061;28;19925;-50
2022/03/30 00:24:57;;;;;;;;;;;;;;;19.17;55.61;98050.47;2047037;28;19934;-49
2022/03/30 00:25:58;;;;;;;;;;;;;;;19.17;55.52;98044.28;2049310;28;20113;-49
2022/03/30 00:27:00;;;;;;;;;;;;;;;19.17;55.37;98044.28;2046536;28;19930;-50
2022/03/30 00:28:02;;;;;;;;;;;;;;;19.17;55.52;98045.09;2045296;28;19951;-49
2022/03/30 00:29:04;;;;;;;;;;;;;;;19.15;55.49;98041.00;2042224;28;19930;-52
2022/03/30 00:30:05;;;;;;;;;;;;;;;19.14;55.60;98045.53;2038740;28;19926;-51
2022/03/30 00:31:07;;;;;;;;;;;;;;;19.14;55.42;98042.84;2041237;28;19926;-52
2022/03/30 00:32:08;;;;;;;;;;;;;;;19.14;55.68;98034.78;2039487;28;19929;-51
2022/03/30 00:33:11;;;;;;;;;;;;;;;19.15;55.60;98041.81;2044195;28;20335;-51
2022/03/30 00:34:11;;;;;;;;;;;;;;;19.15;55.48;98038.31;2036298;28;19937;-51
2022/03/30 00:35:14;;;;;;;;;;;;;;;19.14;55.60;98042.03;2039355;28;19936;-49
2022/03/30 00:36:14;;;;;;;;;;;;;;;19.14;55.62;98040.16;2039333;28;19926;-51
2022/03/30 00:37:16;;;;;;;;;;;;;;;19.15;55.58;98038.31;2047501;28;20463;-51
2022/03/30 00:38:16;;;;;;;;;;;;;;;19.15;55.36;98036.44;2041824;28;19930;-49
2022/03/30 00:39:18;;;;;;;;;;;;;;;19.14;55.51;98033.97;2037965;28;19973;-49
2022/03/30 00:40:18;;;;;;;;;;;;;;;19.12;55.67;98031.50;2041466;28;19933;-50
2022/03/30 00:41:20;;;;;;;;;;;;;;;19.12;55.66;98031.50;2045581;28;19988;-51
2022/03/30 00:42:22;;;;;;;;;;;;;;;19.11;55.53;98023.63;2040099;28;20021;-50
2022/03/30 00:43:24;;;;;;;;;;;;;;;19.10;55.47;98022.81;2038520;28;19973;-51
2022/03/30 00:44:25;;;;;;;;;;;;;;;19.12;55.69;98025.31;2040528;28;19926;-50
2022/03/30 00:45:27;;;;;;;;;;;;;;;19.09;55.46;98021.19;2044221;28;21882;-49
2022/03/30 00:46:27;;;;;;;;;;;;;;;19.11;55.63;98027.19;2046352;28;19926;-50
2022/03/30 00:47:29;;;;;;;;;;;;;;;19.10;55.61;98022.00;2043420;28;20260;-49
2022/03/30 00:48:31;;;;;;;;;;;;;;;19.09;55.50;98020.38;2037541;28;19930;-50
2022/03/30 00:49:32;;;;;;;;;;;;;;;19.09;55.56;98017.69;2039903;28;19937;-50
2022/03/30 00:50:33;;;;;;;;;;;;;;;19.09;55.50;98017.69;2044496;28;19925;-50
2022/03/30 00:51:35;;;;;;;;;;;;;;;19.09;55.50;98015.81;2041518;28;20048;-50
2022/03/30 00:52:35;;;;;;;;;;;;;;;19.10;55.58;98019.31;2043793;28;20578;-50
2022/03/30 00:53:37;;;;;;;;;;;;;;;19.08;55.40;98018.72;2045378;28;19932;-50
2022/03/30 00:54:38;;;;;;;;;;;;;;;19.07;55.21;98009.84;2038241;28;19930;-50
2022/03/30 00:55:39;;;;;;;;;;;;;;;19.09;55.53;98009.63;2043649;28;19921;-51
2022/03/30 00:56:42;;;;;;;;;;;;;;;19.08;55.15;98005.28;2052813;28;20011;-52
2022/03/30 00:57:45;;;;;;;;;;;;;;;19.08;55.69;98010.66;2043725;28;19972;-51
2022/03/30 00:58:47;;;;;;;;;;;;;;;19.07;55.40;98003.63;2039485;28;19929;-51
2022/03/30 00:59:47;;;;;;;;;;;;;;;19.07;55.40;97995.56;2042686;28;20029;-51
2022/03/30 01:00:49;;;;;;;;;;;;;;;19.05;55.29;97992.28;2041259;28;19926;-52
2022/03/30 01:01:50;;;;;;;;;;;;;;;19.07;55.50;97998.25;2042049;28;19937;-49
2022/03/30 01:02:52;;;;;;;;;;;;;;;19.06;55.57;97999.31;2046705;28;19933;-51
2022/03/30 01:03:54;;;;;;;;;;;;;;;19.05;55.27;97987.72;2039626;28;19930;-51
2022/03/30 01:04:56;;;;;;;;;;;;;;;19.04;55.39;97988.78;2047366;28;19932;-49
2022/03/30 01:05:57;;;;;;;;;;;;;;;19.03;55.42;97987.13;2039749;28;19973;-52
2022/03/30 01:06:58;;;;;;;;;;;;;;;19.05;55.44;97987.72;2039899;28;20089;-49
2022/03/30 01:07:59;;;;;;;;;;;;;;;19.03;55.24;97983.59;2039787;28;19937;-50
2022/03/30 01:09:00;;;;;;;;;;;;;;;19.03;55.38;97987.13;2038263;28;19934;-51
2022/03/30 01:10:02;;;;;;;;;;;;;;;19.04;55.43;97990.66;2042949;28;19926;-48
2022/03/30 01:11:04;;;;;;;;;;;;;;;19.03;55.33;97987.13;2048397;28;19926;-49
2022/03/30 01:12:05;;;;;;;;;;;;;;;19.03;55.27;97983.59;2049457;28;19926;-48
2022/03/30 01:13:07;;;;;;;;;;;;;;;19.03;55.50;97978.22;2050671;28;20302;-50
2022/03/30 01:14:08;;;;;;;;;;;;;;;19.03;55.66;97980.91;2027255;28;19936;-51
2022/03/30 01:15:12;;;;;;;;;;;;;;;19.03;55.43;97983.59;2042583;28;19973;-51
2022/03/30 01:16:12;;;;;;;;;;;;;;;19.02;55.47;97981.97;2050193;28;20796;-49
2022/03/30 01:17:14;;;;;;;;;;;;;;;19.02;55.25;97976.59;2044185;28;19926;-52
2022/03/30 01:18:15;;;;;;;;;;;;;;;19.02;55.32;97976.59;2040157;28;20064;-50
2022/03/30 01:19:17;;;;;;;;;;;;;;;19.01;55.17;97969.59;2043549;28;20020;-50
2022/03/30 01:20:21;;;;;;;;;;;;;;;19.01;55.44;97967.72;2036222;28;20380;-50
2022/03/30 01:21:23;;;;;;;;;;;;;;;19.02;55.55;97965.84;2039712;28;20344;-49
2022/03/30 01:22:25;;;;;;;;;;;;;;;19.01;55.33;97966.91;2036276;28;19926;-52
2022/03/30 01:23:25;;;;;;;;;;;;;;;18.99;55.21;97964.44;2039253;28;19930;-54
2022/03/30 01:24:27;;;;;;;;;;;;;;;19.00;55.21;97960.72;2044043;28;20499;-51
2022/03/30 01:25:28;;;;;;;;;;;;;;;19.00;55.38;97962.56;2044621;28;19938;-52
2022/03/30 01:26:30;;;;;;;;;;;;;;;18.98;55.47;97955.56;2038069;28;19936;-52
2022/03/30 01:27:30;;;;;;;;;;;;;;;18.99;55.28;97961.75;2046096;28;19930;-51
2022/03/30 01:28:33;;;;;;;;;;;;;;;18.98;55.29;97960.94;2039128;28;20636;-51
2022/03/30 01:32:27;;;;;;;;;;;;;;;18.97;55.75;97956.59;2050437;28;22002;-50
2022/03/30 01:33:28;;;;;;;;;;;;;;;18.97;55.20;97942.31;2041818;28;20098;-52
2022/03/30 01:34:29;;;;;;;;;;;;;;;18.97;55.70;97953.91;2038411;28;19930;-49
2022/03/30 01:35:31;;;;;;;;;;;;;;;18.96;55.36;97946.06;2039484;28;20428;-51
2022/03/30 01:36:35;;;;;;;;;;;;;;;18.95;55.36;97956.00;2037216;28;19925;-51
2022/03/30 01:37:37;;;;;;;;;;;;;;;18.97;55.51;97953.06;2043850;28;19930;-50
2022/03/30 01:38:38;;;;;;;;;;;;;;;18.96;55.40;97946.88;2041540;28;19987;-51
2022/03/30 01:39:39;;;;;;;;;;;;;;;18.96;55.22;97952.25;2044939;28;19932;-51
2022/03/30 01:40:41;;;;;;;;;;;;;;;18.95;55.31;97947.94;2047150;28;20026;-54
2022/03/30 01:41:41;;;;;;;;;;;;;;;18.94;55.10;97948.16;2047412;28;19922;-50
2022/03/30 01:42:43;;;;;;;;;;;;;;;18.94;55.18;97935.56;2053618;28;19926;-49
2022/03/30 01:43:43;;;;;;;;;;;;;;;18.95;55.49;97937.19;2048832;28;20051;-48
2022/03/30 01:44:45;;;;;;;;;;;;;;;18.93;55.32;97936.56;2041887;28;19937;-50
2022/03/30 01:45:47;;;;;;;;;;;;;;;18.93;55.40;97939.25;2041016;28;19926;-52
2022/03/30 01:46:47;;;;;;;;;;;;;;;18.94;55.21;97940.09;2050863;28;19925;-51
2022/03/30 01:47:49;;;;;;;;;;;;;;;18.93;55.26;97936.56;2042617;28;19930;-50
2022/03/30 01:48:50;;;;;;;;;;;;;;;18.93;55.65;97936.56;2039498;28;20564;-50
2022/03/30 01:49:51;;;;;;;;;;;;;;;18.92;55.00;97932.25;2041592;28;19926;-51
2022/03/30 01:50:54;;;;;;;;;;;;;;;18.91;55.53;97930.59;2042592;28;19932;-51
2022/03/30 01:51:56;;;;;;;;;;;;;;;18.91;55.35;97938.66;2039203;28;19983;-51
2022/03/30 01:52:59;;;;;;;;;;;;;;;18.92;55.25;97934.94;2039011;28;19971;-49
2022/03/30 01:54:00;;;;;;;;;;;;;;;18.91;55.47;97933.28;2048041;28;20328;-50
2022/03/30 01:55:01;;;;;;;;;;;;;;;18.91;55.31;97935.97;2045591;28;19925;-51
2022/03/30 01:56:02;;;;;;;;;;;;;;;18.89;55.46;97927.34;2038211;28;19941;-55
2022/03/30 01:57:04;;;;;;;;;;;;;;;18.89;55.15;97930.03;2041166;28;20414;-53
2022/03/30 01:58:06;;;;;;;;;;;;;;;18.89;55.45;97927.34;2046274;28;19932;-51
2022/03/30 01:59:07;;;;;;;;;;;;;;;18.89;55.30;97924.66;2045986;28;19932;-50
2022/03/30 02:00:10;;;;;;;;;;;;;;;18.89;55.72;97924.66;2046724;28;19933;-49
2022/03/30 02:01:11;;;;;;;;;;;;;;;18.88;55.49;97920.28;2040425;28;20065;-49
2022/03/30 02:02:13;;;;;;;;;;;;;;;18.88;55.43;97912.22;2052352;28;19930;-49
2022/03/30 02:03:13;;;;;;;;;;;;;;;18.89;55.37;97923.81;2050528;28;20439;-52
2022/03/30 02:04:15;;;;;;;;;;;;;;;18.88;55.43;97922.97;2038353;28;19926;-49
2022/03/30 02:05:18;;;;;;;;;;;;;;;18.89;55.23;97918.47;2036548;28;19936;-52
2022/03/30 02:06:22;;;;;;;;;;;;;;;18.88;55.31;97914.09;2036381;28;19926;-48
2022/03/30 02:07:25;;;;;;;;;;;;;;;18.88;55.54;97920.28;2035967;28;20074;-50
2022/03/30 02:08:26;;;;;;;;;;;;;;;18.87;55.21;97909.78;2035903;28;19935;-50
2022/03/30 02:09:27;;;;;;;;;;;;;;;18.88;55.21;97916.78;2039482;28;21703;-48
2022/03/30 02:10:28;;;;;;;;;;;;;;;18.87;55.42;97921.34;2048233;28;19932;-49
2022/03/30 02:11:30;;;;;;;;;;;;;;;18.87;55.35;97920.53;2037046;28;19955;-51
2022/03/30 02:12:31;;;;;;;;;;;;;;;18.85;55.46;97915.38;2042386;28;19933;-50
2022/03/30 02:13:32;;;;;;;;;;;;;;;18.85;55.25;97918.06;2045053;28;22175;-49
2022/03/30 02:14:33;;;;;;;;;;;;;;;18.85;55.48;97918.06;2040827;28;19934;-49
2022/03/30 02:15:35;;;;;;;;;;;;;;;18.85;55.38;97912.69;2044616;28;19925;-50
2022/03/30 02:16:36;;;;;;;;;;;;;;;18.85;55.42;97918.06;2050836;28;19933;-49
2022/03/30 02:17:38;;;;;;;;;;;;;;;18.85;55.16;97919.94;2043815;28;19925;-49
2022/03/30 02:18:38;;;;;;;;;;;;;;;18.85;55.40;97903.81;2045213;28;19926;-49
2022/03/30 02:19:40;;;;;;;;;;;;;;;18.84;55.49;97910.25;2038374;28;19937;-50
2022/03/30 02:20:41;;;;;;;;;;;;;;;18.84;55.38;97905.69;2035130;28;19929;-50
2022/03/30 02:21:42;;;;;;;;;;;;;;;18.83;55.39;97905.88;2039556;28;19937;-51
2022/03/30 02:22:45;;;;;;;;;;;;;;;18.83;55.44;97906.69;2044918;28;19975;-50
2022/03/30 02:23:46;;;;;;;;;;;;;;;18.83;55.43;97901.31;2035703;28;19971;-49
2022/03/30 02:24:48;;;;;;;;;;;;;;;18.82;55.54;97910.44;2034673;28;20487;-48
2022/03/30 02:25:48;;;;;;;;;;;;;;;18.83;55.42;97906.69;2037882;28;20005;-49
2022/03/30 02:26:50;;;;;;;;;;;;;;;18.82;55.14;97907.75;2040233;28;19972;-50
2022/03/30 02:27:51;;;;;;;;;;;;;;;18.84;55.32;97912.94;2036346;28;19937;-50
2022/03/30 02:28:52;;;;;;;;;;;;;;;18.83;55.48;97911.25;2036643;28;19992;-49
2022/03/30 02:29:54;;;;;;;;;;;;;;;18.83;55.25;97912.06;2044708;28;19980;-50
2022/03/30 02:30:55;;;;;;;;;;;;;;;18.82;55.04;97913.13;2048715;28;20761;-48
2022/03/30 02:31:56;;;;;;;;;;;;;;;18.80;55.39;97909.84;2039061;28;19929;-48
2022/03/30 02:32:57;;;;;;;;;;;;;;;18.80;55.15;97909.84;2045363;28;20013;-51
2022/03/30 02:33:59;;;;;;;;;;;;;;;18.80;55.44;97903.66;2036233;28;20156;-51
2022/03/30 02:35:00;;;;;;;;;;;;;;;18.80;55.29;97906.34;2036006;28;20032;-50
2022/03/30 02:36:02;;;;;;;;;;;;;;;18.81;55.42;97910.69;2039300;28;19930;-47
2022/03/30 02:37:03;;;;;;;;;;;;;;;18.79;55.25;97900.16;2043258;28;20649;-49
2022/03/30 02:38:05;;;;;;;;;;;;;;;18.79;55.05;97905.53;2038073;28;19925;-49
2022/03/30 02:39:08;;;;;;;;;;;;;;;18.80;55.13;97906.34;2035115;28;20794;-49
2022/03/30 02:40:09;;;;;;;;;;;;;;;18.79;55.38;97905.53;2040477;28;19925;-49
2022/03/30 02:41:11;;;;;;;;;;;;;;;18.77;55.14;97904.91;2035488;28;19926;-46
2022/03/30 02:42:13;;;;;;;;;;;;;;;18.77;55.50;97902.22;2037519;28;19933;-49
2022/03/30 02:43:16;;;;;;;;;;;;;;;18.80;55.33;97909.03;2039001;28;19926;-50
2022/03/30 02:44:18;;;;;;;;;;;;;;;18.78;55.49;97903.03;2043953;28;19925;-51
2022/03/30 02:45:19;;;;;;;;;;;;;;;18.77;55.40;97902.22;2044039;28;20086;-52
2022/03/30 02:46:20;;;;;;;;;;;;;;;18.77;55.36;97909.47;2038122;28;20956;-49
2022/03/30 02:48:17;;;;;;;;;;;;;;;18.77;55.07;97904.91;2040031;28;19925;-50
2022/03/30 02:48:43;;;;;;;;;;;;;;;18.77;55.35;97902.22;2041681;28;21965;-50
2022/03/30 02:49:43;;;;;;;;;;;;;;;18.75;55.14;97896.28;2051377;28;20024;-47
2022/03/30 02:50:45;;;;;;;;;;;;;;;18.75;55.45;97897.09;2037461;28;20416;-50
2022/03/30 02:51:45;;;;;;;;;;;;;;;18.75;55.12;97904.34;2044560;28;19926;-49
2022/03/30 02:52:47;;;;;;;;;;;;;;;18.74;55.20;97898.13;2046799;28;19930;-49
2022/03/30 02:53:49;;;;;;;;;;;;;;;18.74;55.05;97900.81;2038640;28;21889;-48
2022/03/30 02:54:50;;;;;;;;;;;;;;;18.73;55.38;97901.81;2036008;28;24098;-50
2022/03/30 02:55:51;;;;;;;;;;;;;;;18.74;55.33;97897.31;2034233;28;19930;-49
2022/03/30 02:56:53;;;;;;;;;;;;;;;18.74;55.37;97894.63;2034602;28;19925;-51
2022/03/30 02:57:54;;;;;;;;;;;;;;;18.72;55.20;97893.97;2040132;28;20328;-47
2022/03/30 02:58:55;;;;;;;;;;;;;;;18.74;55.22;97897.31;2035851;28;19940;-48
2022/03/30 02:59:56;;;;;;;;;;;;;;;18.74;55.12;97898.13;2039534;28;19929;-47
2022/03/30 03:00:57;;;;;;;;;;;;;;;18.73;54.92;97893.75;2050513;28;20055;-47
2022/03/30 03:01:59;;;;;;;;;;;;;;;18.73;55.27;97895.63;2051226;28;19945;-50
2022/03/30 03:03:01;;;;;;;;;;;;;;;18.73;55.31;97890.25;2038677;28;19961;-50
2022/03/30 03:04:03;;;;;;;;;;;;;;;18.72;55.26;97896.66;2043397;28;19926;-50
2022/03/30 03:05:03;;;;;;;;;;;;;;;18.71;55.37;97884.28;2037705;28;20021;-48
2022/03/30 03:06:05;;;;;;;;;;;;;;;18.71;55.12;97885.09;2038300;28;20396;-49
2022/03/30 03:07:07;;;;;;;;;;;;;;;18.71;55.30;97887.78;2035895;28;19937;-48
2022/03/30 03:08:10;;;;;;;;;;;;;;;18.72;55.45;97880.53;2048517;28;20461;-50
2022/03/30 03:09:13;;;;;;;;;;;;;;;18.70;55.36;97880.78;2049550;28;19929;-50
2022/03/30 03:10:13;;;;;;;;;;;;;;;18.71;55.22;97877.03;2046641;28;20023;-48
2022/03/30 03:11:15;;;;;;;;;;;;;;;18.70;55.13;97879.97;2037816;28;19992;-51
2022/03/30 03:12:15;;;;;;;;;;;;;;;18.71;55.13;97876.22;2045160;28;19979;-49
2022/03/30 03:13:17;;;;;;;;;;;;;;;18.71;55.15;97876.22;2040671;28;20055;-50
2022/03/30 03:14:18;;;;;;;;;;;;;;;18.70;55.02;97871.91;2037426;28;19937;-48
2022/03/30 03:15:20;;;;;;;;;;;;;;;18.70;55.51;97879.97;2041101;28;19987;-50
2022/03/30 03:16:21;;;;;;;;;;;;;;;18.70;55.25;97877.28;2054321;28;19926;-50
2022/03/30 03:17:21;;;;;;;;;;;;;;;18.70;55.37;97878.09;2048679;28;19957;-50
2022/03/30 03:18:23;;;;;;;;;;;;;;;18.69;55.21;97868.41;2050216;28;20466;-50
2022/03/30 03:19:25;;;;;;;;;;;;;;;18.70;55.17;97870.03;2044570;28;19922;-49
2022/03/30 03:20:25;;;;;;;;;;;;;;;18.68;55.56;97874.00;2036903;28;20028;-50
2022/03/30 03:21:27;;;;;;;;;;;;;;;18.68;55.17;97871.31;2037068;28;20505;-49
2022/03/30 03:22:27;;;;;;;;;;;;;;;18.68;55.13;97871.31;2036770;28;19935;-52
2022/03/30 03:23:29;;;;;;;;;;;;;;;18.68;55.60;97864.06;2045862;28;19937;-51
2022/03/30 03:24:31;;;;;;;;;;;;;;;18.68;55.36;97868.63;2034832;28;19925;-48
2022/03/30 03:25:33;;;;;;;;;;;;;;;18.66;55.37;97868.81;2036462;28;19937;-51
2022/03/30 03:26:34;;;;;;;;;;;;;;;18.67;55.28;97864.28;2037668;28;19930;-50
2022/03/30 03:27:36;;;;;;;;;;;;;;;18.67;55.24;97869.66;2049632;28;20012;-50
2022/03/30 03:28:36;;;;;;;;;;;;;;;18.64;55.44;97860.19;2045716;28;19945;-50
2022/03/30 03:29:38;;;;;;;;;;;;;;;18.64;55.55;97867.44;2036339;28;24610;-48
2022/03/30 03:30:39;;;;;;;;;;;;;;;18.65;55.28;97861.81;2045449;28;19937;-49
2022/03/30 03:31:40;;;;;;;;;;;;;;;18.64;55.53;97865.56;2046564;28;20632;-50
2022/03/30 03:32:41;;;;;;;;;;;;;;;18.64;55.49;97867.44;2047603;28;19937;-49
2022/03/30 03:33:42;;;;;;;;;;;;;;;18.64;55.67;97862.88;2036685;28;20034;-48
2022/03/30 03:34:43;;;;;;;;;;;;;;;18.64;55.29;97857.50;2040397;28;20339;-50
2022/03/30 03:35:44;;;;;;;;;;;;;;;18.64;55.20;97857.50;2044311;28;19933;-49
2022/03/30 03:36:46;;;;;;;;;;;;;;;18.64;55.20;97862.88;2046314;28;19929;-49
2022/03/30 03:37:47;;;;;;;;;;;;;;;18.64;55.46;97856.69;2046455;28;20281;-50
2022/03/30 03:38:48;;;;;;;;;;;;;;;18.64;55.40;97854.00;2039889;28;19937;-50
2022/03/30 03:39:50;;;;;;;;;;;;;;;18.63;55.46;97858.53;2042746;28;20608;-49
2022/03/30 03:40:52;;;;;;;;;;;;;;;18.62;55.29;97854.22;2037628;28;21191;-50
2022/03/30 03:41:52;;;;;;;;;;;;;;;18.62;55.11;97854.22;2037756;28;19926;-49
2022/03/30 03:42:54;;;;;;;;;;;;;;;18.63;55.57;97855.84;2055538;28;19937;-50
2022/03/30 03:43:54;;;;;;;;;;;;;;;18.63;55.24;97860.41;2051916;28;20773;-47
2022/03/30 03:44:56;;;;;;;;;;;;;;;18.62;55.33;97850.72;2044617;28;19930;-51
2022/03/30 03:45:57;;;;;;;;;;;;;;;18.62;55.37;97854.22;2043635;28;20052;-51
2022/03/30 03:46:58;;;;;;;;;;;;;;;18.61;55.25;97857.09;2048781;28;19922;-49
2022/03/30 03:48:00;;;;;;;;;;;;;;;18.61;55.35;97854.41;2039483;28;19976;-49
2022/03/30 03:49:00;;;;;;;;;;;;;;;18.62;55.38;97853.41;2038917;28;19936;-48
2022/03/30 03:50:02;;;;;;;;;;;;;;;18.61;55.16;97852.59;2046033;28;20482;-47
2022/03/30 03:51:04;;;;;;;;;;;;;;;18.60;55.26;97850.91;2049427;28;19933;-48
2022/03/30 03:52:05;;;;;;;;;;;;;;;18.59;55.30;97854.66;2041454;28;19925;-49
2022/03/30 03:53:07;;;;;;;;;;;;;;;18.59;55.23;97848.47;2043310;28;19961;-50
2022/03/30 03:54:07;;;;;;;;;;;;;;;18.59;55.21;97848.47;2035073;28;19926;-52
2022/03/30 03:55:10;;;;;;;;;;;;;;;18.59;55.42;97849.28;2040069;28;19930;-47
2022/03/30 03:56:11;;;;;;;;;;;;;;;18.60;55.13;97844.72;2043527;28;19930;-48
2022/03/30 03:57:13;;;;;;;;;;;;;;;18.58;55.19;97846.81;2039175;28;19937;-48
2022/03/30 03:58:13;;;;;;;;;;;;;;;18.58;55.28;97842.25;2050285;28;19937;-47
2022/03/30 03:59:15;;;;;;;;;;;;;;;18.59;55.59;97843.09;2037885;28;19926;-52
2022/03/30 04:00:16;;;;;;;;;;;;;;;18.59;55.27;97843.91;2036547;28;19932;-49
2022/03/30 04:01:18;;;;;;;;;;;;;;;18.59;55.25;97837.72;2037850;28;19922;-51
2022/03/30 04:02:18;;;;;;;;;;;;;;;18.59;55.52;97838.53;2042540;28;20548;-48
2022/03/30 04:03:20;;;;;;;;;;;;;;;18.59;55.25;97841.22;2041522;28;20018;-52
2022/03/30 04:04:20;;;;;;;;;;;;;;;18.57;55.03;97832.56;2044355;28;19926;-53
2022/03/30 04:05:22;;;;;;;;;;;;;;;18.57;55.14;97837.94;2046863;28;21150;-50
2022/03/30 04:06:22;;;;;;;;;;;;;;;18.58;55.19;97836.06;2044922;28;19933;-51
2022/03/30 04:07:23;;;;;;;;;;;;;;;18.58;54.97;97833.38;2039188;28;19930;-47
2022/03/30 04:08:25;;;;;;;;;;;;;;;18.60;55.00;97834.00;2037451;28;20449;-49
2022/03/30 04:09:25;;;;;;;;;;;;;;;18.63;55.06;97828.97;2037347;28;19937;-49
2022/03/30 04:10:29;;;;;;;;;;;;;;;18.65;54.88;97823.41;2037983;28;19930;-50
2022/03/30 04:11:29;;;;;;;;;;;;;;;18.66;54.82;97828.53;2039161;28;19973;-47
2022/03/30 04:12:31;;;;;;;;;;;;;;;18.70;54.98;97828.94;2040053;28;19926;-50
2022/03/30 04:13:33;;;;;;;;;;;;;;;18.71;54.77;97828.69;2050944;28;19925;-49
2022/03/30 04:14:33;;;;;;;;;;;;;;;18.74;54.80;97827.47;2047584;28;20020;-49
2022/03/30 04:15:35;;;;;;;;;;;;;;;18.75;54.82;97821.06;2040887;28;19926;-48
2022/03/30 04:16:35;;;;;;;;;;;;;;;18.77;54.91;97818.94;2039195;28;19956;-49
2022/03/30 04:17:42;;;;;;;;;;;;;;;18.81;54.71;97819.34;2051237;28;19926;-51
2022/03/30 04:18:43;;;;;;;;;;;;;;;18.83;54.49;97819.91;2049862;28;19933;-50
2022/03/30 04:19:44;;;;;;;;;;;;;;;18.85;54.50;97820.53;2036662;28;19925;-49
2022/03/30 04:20:46;;;;;;;;;;;;;;;18.86;54.66;97823.00;2041450;28;21252;-49
2022/03/30 04:21:46;;;;;;;;;;;;;;;18.88;54.49;97820.06;2043617;28;19965;-50
2022/03/30 04:22:48;;;;;;;;;;;;;;;18.86;54.70;97817.63;2046681;28;20671;-49
2022/03/30 04:23:48;;;;;;;;;;;;;;;18.90;54.69;97817.97;2040139;28;19925;-48
2022/03/30 04:24:50;;;;;;;;;;;;;;;18.89;54.64;97814.47;2040957;28;27313;-48
2022/03/30 04:25:53;;;;;;;;;;;;;;;18.91;54.71;97811.56;2040014;28;19929;-51
2022/03/30 04:26:53;;;;;;;;;;;;;;;18.93;54.57;97812.97;2041946;28;19929;-49
2022/03/30 04:27:55;;;;;;;;;;;;;;;18.94;54.69;97808.41;2038435;28;19933;-47
2022/03/30 04:28:56;;;;;;;;;;;;;;;18.94;54.56;97811.94;2044287;28;20419;-49
2022/03/30 04:29:57;;;;;;;;;;;;;;;18.97;54.39;97810.66;2043005;28;19929;-48
2022/03/30 04:30:58;;;;;;;;;;;;;;;18.98;54.68;97810.44;2042679;28;20552;-51
2022/03/30 04:32:00;;;;;;;;;;;;;;;19.00;54.25;97806.69;2040123;28;19936;-49
2022/03/30 04:33:01;;;;;;;;;;;;;;;18.99;54.42;97800.50;2041678;28;19968;-48
2022/03/30 04:34:02;;;;;;;;;;;;;;;18.98;54.42;97810.44;2042681;28;19953;-51
2022/03/30 04:35:03;;;;;;;;;;;;;;;19.00;54.69;97804.00;2044330;28;19929;-51
2022/03/30 04:36:05;;;;;;;;;;;;;;;19.01;54.62;97802.97;2034809;28;20397;-48
2022/03/30 04:37:06;;;;;;;;;;;;;;;19.02;54.38;97809.97;2040858;28;19963;-49
2022/03/30 04:38:07;;;;;;;;;;;;;;;19.01;54.52;97808.34;2041945;28;19929;-51
2022/03/30 04:39:07;;;;;;;;;;;;;;;19.02;54.42;97804.59;2038831;28;19926;-49
2022/03/30 04:40:10;;;;;;;;;;;;;;;19.03;54.60;97808.91;2037872;28;20455;-50
2022/03/30 04:41:12;;;;;;;;;;;;;;;19.04;54.47;97810.59;2042748;28;19950;-49
2022/03/30 04:42:14;;;;;;;;;;;;;;;19.04;54.58;97808.72;2037601;28;20004;-51
2022/03/30 04:43:14;;;;;;;;;;;;;;;19.04;54.56;97807.88;2040784;28;19926;-48
2022/03/30 04:44:16;;;;;;;;;;;;;;;19.05;54.45;97810.34;2039991;28;19930;-49
2022/03/30 04:45:17;;;;;;;;;;;;;;;19.05;54.38;97804.16;2038556;28;19937;-49
2022/03/30 04:46:18;;;;;;;;;;;;;;;19.05;54.45;97812.22;2042208;28;19930;-49
2022/03/30 04:47:19;;;;;;;;;;;;;;;19.06;54.80;97805.81;2039959;28;19972;-51
2022/03/30 04:48:20;;;;;;;;;;;;;;;19.04;54.59;97806.03;2044906;28;19926;-49
2022/03/30 04:49:21;;;;;;;;;;;;;;;19.06;54.28;97801.25;2045583;28;19962;-48
2022/03/30 04:50:23;;;;;;;;;;;;;;;19.07;54.81;97802.06;2040131;28;21692;-48
2022/03/30 04:51:23;;;;;;;;;;;;;;;19.07;54.51;97800.19;2040517;28;20545;-51
2022/03/30 04:52:25;;;;;;;;;;;;;;;19.08;54.44;97801.81;2041530;28;19953;-48
2022/03/30 04:53:25;;;;;;;;;;;;;;;19.09;54.55;97799.97;2044638;28;19933;-47
2022/03/30 04:54:27;;;;;;;;;;;;;;;19.08;54.57;97803.69;2038683;28;20316;-49
2022/03/30 04:55:28;;;;;;;;;;;;;;;19.08;54.61;97799.13;2049223;28;19933;-48
2022/03/30 04:56:30;;;;;;;;;;;;;;;19.08;54.85;97801.00;2047831;28;19976;-51
2022/03/30 04:57:32;;;;;;;;;;;;;;;19.10;54.48;97809.66;2037865;28;20365;-49
2022/03/30 04:58:33;;;;;;;;;;;;;;;19.08;54.96;97799.13;2036785;28;19930;-50
2022/03/30 04:59:34;;;;;;;;;;;;;;;19.08;54.72;97807.19;2047580;28;19933;-48
2022/03/30 05:00:35;;;;;;;;;;;;;;;19.10;54.76;97806.97;2054294;28;19937;-49
2022/03/30 05:01:37;;;;;;;;;;;;;;;19.10;54.48;97805.09;2055202;28;19933;-49
2022/03/30 05:02:38;;;;;;;;;;;;;;;19.12;54.36;97802.22;2054765;28;20015;-52
2022/03/30 05:03:40;;;;;;;;;;;;;;;19.12;54.41;97804.91;2053586;28;19930;-49
2022/03/30 05:04:40;;;;;;;;;;;;;;;19.13;54.40;97804.66;2052454;28;19961;-55
2022/03/30 05:05:42;;;;;;;;;;;;;;;19.15;54.62;97804.44;2053995;28;20304;-51
2022/03/30 05:06:42;;;;;;;;;;;;;;;19.17;54.59;97803.16;2054037;28;19925;-53
2022/03/30 05:07:44;;;;;;;;;;;;;;;19.15;54.67;97799.06;2052039;28;19929;-49
2022/03/30 05:08:44;;;;;;;;;;;;;;;19.14;54.43;97800.13;2053007;28;19972;-55
2022/03/30 05:09:46;;;;;;;;;;;;;;;19.15;54.42;97799.06;2053885;28;19933;-53
2022/03/30 05:10:46;;;;;;;;;;;;;;;19.16;54.63;97801.50;2054187;28;19922;-54
2022/03/30 05:11:50;;;;;;;;;;;;;;;19.18;54.46;97804.78;2051984;28;19922;-49
2022/03/30 05:12:51;;;;;;;;;;;;;;;19.19;54.53;97797.53;2053876;28;19926;-53
2022/03/30 05:13:52;;;;;;;;;;;;;;;19.19;54.58;97802.91;2054028;28;19930;-51
2022/03/30 05:14:54;;;;;;;;;;;;;;;19.18;54.67;97803.97;2055973;28;19983;-51
2022/03/30 05:15:55;;;;;;;;;;;;;;;19.17;54.53;97803.16;2049067;28;19964;-50
2022/03/30 05:16:57;;;;;;;;;;;;;;;19.17;54.76;97802.34;2051158;28;19922;-51
2022/03/30 05:17:57;;;;;;;;;;;;;;;19.18;54.47;97798.59;2043100;28;19930;-51
2022/03/30 05:18:59;;;;;;;;;;;;;;;19.19;54.35;97798.38;2037340;28;19925;-52
2022/03/30 05:19:59;;;;;;;;;;;;;;;19.19;54.51;97794.84;2047016;28;19926;-50
2022/03/30 05:21:01;;;;;;;;;;;;;;;19.19;54.49;97802.91;2051096;28;19930;-49
2022/03/30 05:22:02;;;;;;;;;;;;;;;19.21;54.42;97800.84;2045190;28;19925;-50
2022/03/30 05:23:03;;;;;;;;;;;;;;;19.20;54.56;97797.31;2039599;28;20001;-51